San Juan de Pasto, Colombia

11:30 AM -05 en Noviembre 23, 2017 (GMT -0500)
Antonio Narino | | Change Station

Alt 5991 ft 1.42 °N, 77.27 °W | Updated 30 minutes ago

Lluvia
Lluvia
68 ° F
Sensación térmica 68 ° F
N
6
Viento Variable Viento desde Norte

Hoy
Alta -- | Baja -- ° F
--% Posibilidad de precipitaciones
Ayer
Alta -- | Baja -- ° F
Precip. -- pul
Presión 30.18 pul
Visibilidad 6.2 Millas
Nubes Muy nublado 2000 ft
Punto de rocío 63 ° F
Humedad 83%
Precipitaciones 0.00 pul
Espesor de la nieve No disponible.
5:53 AM 5:55 PM
Creciente, 23% visible
METAR SKPS 231600Z 36005KT 9999 BKN020 20/17 A3018
Presión 30.18 pul
Visibilidad 6.2 Millas
Nubes Muy nublado 2000 ft
Punto de rocío 63 ° F
Humedad 83%
Precipitaciones 0.00 pul
Espesor de la nieve No disponible.
5:53 AM 5:55 PM
Creciente, 23% visible
METAR SKPS 231600Z 36005KT 9999 BKN020 20/17 A3018

Get Severe Weather Alerts

Thanks for signing up!

Be on the lookout for a verification email in your inbox.

You'll start receiving the daily forecast at 6 AM.

×

10-Day Weather Forecast

No radar image for this location.
×

Almanac

Astronomía

Nov. 23, 2017 Salida Puesta
Hora real
Crepúsculo civil
Crepúsculo náutico
Crepúsculo astronómico
Luna
Horas de luz
Horas de luz
Tomorrow will be .
, % of the Moon is Illuminated

Extremos de hoy

Máximos del país Bajas del país

Community

WunderPhotos

Category 6

Welcome to Category 6. This is the collective home for Weather Underground's featured writeups by Dr. Jeff Masters (right), Bob Henson (left), Chris Burt, and other regular contributors.

Nearby

Calidad del aire

  Calidad del aire Índice AQ Contaminante
Not available.

Grosos de nieve

Estación Profundido Altura

Actividad de terremotos

Ciudad Distance Mag. Tiempo y dato
Magnitud mínima muestra es 2,5.

Temperaturas de aguas costeras

Lugar Temperatura

Stations

Estaciones meteorológicas cercanas

Ubicación de la estación Temp. Vientos helados Punto de rocío Humedad Viento Precip. Alt Actualizado Tipo